createdAt,value
2023-09-18T00:01:45.238Z,97771.70
2023-09-18T00:04:15.203Z,97768.13
2023-09-18T00:52:24.838Z,97757.77
2023-09-18T01:25:54.359Z,97761.42
2023-09-18T01:28:22.474Z,97756.13
2023-09-18T01:30:50.557Z,97758.89
2023-09-18T01:33:19.981Z,97762.88
2023-09-18T01:35:48.467Z,97763.70
2023-09-18T01:38:16.795Z,97762.61
2023-09-18T01:40:45.059Z,97758.36
2023-09-18T01:43:13.088Z,97752.91
2023-09-18T01:45:41.960Z,97749.03
2023-09-18T01:48:10.028Z,97750.47
2023-09-18T01:50:41.273Z,97749.80
2023-09-18T01:53:09.660Z,97744.66
2023-09-18T01:55:37.722Z,97741.57
2023-09-18T01:58:05.688Z,97743.98
2023-09-18T02:00:35.062Z,97738.80
2023-09-18T02:03:20.196Z,97739.43
2023-09-18T02:05:52.800Z,97737.65
2023-09-18T02:08:21.028Z,97738.64
2023-09-18T02:10:48.990Z,97735.11
2023-09-18T02:13:18.883Z,97736.09
2023-09-18T02:15:46.927Z,97734.16
2023-09-18T02:18:17.108Z,97733.96
2023-09-18T02:20:48.808Z,97732.91
2023-09-18T02:23:17.322Z,97735.89
2023-09-18T02:25:45.540Z,97730.85
2023-09-18T02:28:13.574Z,97730.77
2023-09-18T02:30:41.455Z,97734.20
2023-09-18T02:33:10.103Z,97731.52
2023-09-18T02:35:38.188Z,97730.97
2023-09-18T02:38:06.118Z,97730.60
2023-09-18T02:40:34.033Z,97730.04
2023-09-18T02:43:03.248Z,97734.27
2023-09-18T02:45:31.384Z,97735.45
2023-09-18T02:47:59.604Z,97740.80
2023-09-18T02:50:27.698Z,97740.48
2023-09-18T02:52:55.772Z,97741.27
2023-09-18T02:55:23.810Z,97741.79
2023-09-18T02:57:51.711Z,97745.73
2023-09-18T03:00:29.660Z,97742.73
2023-09-18T03:03:08.039Z,97744.96
2023-09-18T03:05:36.325Z,97747.69
2023-09-18T03:08:05.268Z,97747.46
2023-09-18T03:10:37.542Z,97746.84
2023-09-18T03:13:06.651Z,97750.45
2023-09-18T03:15:34.960Z,97752.67
2023-09-18T03:18:04.134Z,97750.58
2023-09-18T03:20:32.781Z,97746.05
2023-09-18T03:23:03.099Z,97746.09
2023-09-18T03:25:49.456Z,97748.63
2023-09-18T03:28:19.618Z,97748.71
2023-09-18T03:30:47.620Z,97749.10
2023-09-18T03:33:15.548Z,97746.97
2023-09-18T03:35:51.665Z,97748.15
2023-09-18T03:38:19.867Z,97747.60
2023-09-18T03:40:48.181Z,97746.29
2023-09-18T03:43:16.417Z,97746.98
2023-09-18T03:45:44.500Z,97748.58
2023-09-18T03:48:12.715Z,97749.77
2023-09-18T03:50:41.649Z,97753.76
2023-09-18T03:53:11.187Z,97757.60
2023-09-18T03:55:39.345Z,97757.10
2023-09-18T03:58:07.622Z,97760.53
2023-09-18T04:00:35.535Z,97761.97
2023-09-18T04:03:03.828Z,97763.58
2023-09-18T04:05:32.065Z,97764.66
2023-09-18T04:08:00.155Z,97768.73
2023-09-18T04:10:28.260Z,97767.55
2023-09-18T04:12:56.314Z,97767.83
2023-09-18T04:15:24.339Z,97768.67
2023-09-18T04:17:52.371Z,97770.46
2023-09-18T04:20:20.494Z,97771.55
2023-09-18T04:22:53.492Z,97773.88
2023-09-18T04:25:23.440Z,97773.19
2023-09-18T04:27:53.627Z,97770.86
2023-09-18T04:30:21.672Z,97773.39
2023-09-18T04:32:49.786Z,97772.23
2023-09-18T04:35:17.851Z,97771.38
2023-09-18T04:37:45.957Z,97767.55
2023-09-18T04:40:14.000Z,97766.24
2023-09-18T04:42:42.084Z,97764.48
2023-09-18T04:45:10.363Z,97765.48
2023-09-18T04:47:38.565Z,97767.69
2023-09-18T04:50:11.020Z,97766.83
2023-09-18T04:52:41.891Z,97771.71
2023-09-18T04:55:10.137Z,97774.00
2023-09-18T04:57:39.319Z,97775.45
2023-09-18T05:00:17.836Z,97776.54
2023-09-18T05:02:46.507Z,97771.58
2023-09-18T05:05:15.585Z,97768.84
2023-09-18T05:07:43.594Z,97772.30
2023-09-18T05:10:12.253Z,97770.12
2023-09-18T05:12:41.376Z,97769.16
2023-09-18T05:15:11.153Z,97764.56
2023-09-18T05:17:43.921Z,97760.88
2023-09-18T05:20:16.926Z,97763.55
2023-09-18T05:22:46.476Z,97766.50
2023-09-18T05:25:18.089Z,97768.27
2023-09-18T05:27:46.565Z,97766.79
2023-09-18T05:30:22.882Z,97761.30
2023-09-18T05:32:51.047Z,97761.54
2023-09-18T05:35:19.417Z,97763.30
2023-09-18T05:37:47.385Z,97762.20
2023-09-18T05:40:15.633Z,97763.50
2023-09-18T05:42:47.376Z,97762.01
2023-09-18T05:45:18.873Z,97765.05
2023-09-18T05:47:47.051Z,97767.42
2023-09-18T05:50:18.383Z,97770.14
2023-09-18T05:52:48.164Z,97771.44
2023-09-18T05:55:16.701Z,97765.66
2023-09-18T05:57:44.794Z,97763.27
2023-09-18T06:00:14.565Z,97759.21
2023-09-18T06:02:42.784Z,97758.71
2023-09-18T06:05:13.173Z,97759.48
2023-09-18T06:07:41.403Z,97757.30
2023-09-18T06:10:09.367Z,97756.67
2023-09-18T06:12:40.755Z,97756.59
2023-09-18T06:15:12.824Z,97758.89
2023-09-18T06:17:42.743Z,97760.20
2023-09-18T06:20:13.946Z,97756.09
2023-09-18T06:22:42.129Z,97751.79
2023-09-18T06:25:11.387Z,97752.01
2023-09-18T06:27:40.212Z,97754.52
2023-09-18T06:30:08.624Z,97757.13
2023-09-18T06:32:38.479Z,97760.25
2023-09-18T06:35:07.342Z,97756.34
2023-09-18T06:37:35.346Z,97754.48
2023-09-18T06:40:05.416Z,97753.35
2023-09-18T06:42:33.815Z,97756.15
2023-09-18T06:45:02.667Z,97760.15
2023-09-18T06:47:31.316Z,97758.59
2023-09-18T06:49:59.447Z,97754.48
2023-09-18T06:52:29.108Z,97759.13
2023-09-18T06:54:59.024Z,97758.73
2023-09-18T06:57:27.184Z,97756.13
2023-09-18T06:59:55.300Z,97752.67
2023-09-18T07:02:23.717Z,97750.85
2023-09-18T07:04:52.412Z,97752.41
2023-09-18T07:07:26.199Z,97747.88
2023-09-18T07:10:04.661Z,97748.55
2023-09-18T07:12:33.731Z,97748.73
2023-09-18T07:15:06.563Z,97747.23
2023-09-18T07:17:36.546Z,97750.75
2023-09-18T07:20:15.847Z,97754.34
2023-09-18T07:22:51.756Z,97756.23
2023-09-18T07:25:19.703Z,97757.85
2023-09-18T07:27:47.747Z,97755.14
2023-09-18T07:30:20.830Z,97754.29
2023-09-18T07:32:49.050Z,97752.12
2023-09-18T07:35:17.413Z,97753.37
2023-09-18T07:37:48.019Z,97752.06
2023-09-18T07:40:17.245Z,97746.20
2023-09-18T07:42:45.530Z,97742.21
2023-09-18T07:45:14.420Z,97741.92
2023-09-18T07:47:52.907Z,97744.34
2023-09-18T07:50:20.875Z,97745.83
2023-09-18T07:52:49.053Z,97742.64
2023-09-18T07:55:17.031Z,97742.03
2023-09-18T07:57:46.818Z,97739.30
2023-09-18T08:00:16.913Z,97740.16
2023-09-18T08:02:45.743Z,97739.13
2023-09-18T08:05:14.796Z,97737.23
2023-09-18T08:07:42.977Z,97734.48
2023-09-18T08:10:11.410Z,97734.02
2023-09-18T08:12:39.481Z,97732.66
2023-09-18T08:15:08.379Z,97733.27
2023-09-18T08:17:36.580Z,97728.80
2023-09-18T08:20:13.450Z,97729.09
2023-09-18T08:22:42.000Z,97725.44
2023-09-18T08:25:12.033Z,97722.70
2023-09-18T08:27:48.601Z,97724.05
2023-09-18T08:30:18.581Z,97724.38
2023-09-18T08:32:49.570Z,97722.27
2023-09-18T08:35:17.636Z,97718.96
2023-09-18T08:37:45.629Z,97719.70
2023-09-18T08:40:15.380Z,97719.52
2023-09-18T08:42:48.715Z,97720.13
2023-09-18T08:45:24.553Z,97720.26
2023-09-18T08:47:54.519Z,97719.73
2023-09-18T08:50:23.868Z,97717.48
2023-09-18T08:52:52.777Z,97716.67
2023-09-18T08:55:21.746Z,97712.66
2023-09-18T08:57:51.180Z,97713.25
2023-09-18T09:00:19.318Z,97714.37
2023-09-18T09:02:50.149Z,97710.09
2023-09-18T09:05:19.146Z,97708.11
2023-09-18T09:07:47.172Z,97711.70
2023-09-18T09:10:15.161Z,97710.13
2023-09-18T09:12:55.123Z,97706.64
2023-09-18T09:15:25.812Z,97705.18
2023-09-18T09:18:05.026Z,97704.90
2023-09-18T09:20:34.059Z,97703.34
2023-09-18T09:23:08.233Z,97703.77
2023-09-18T09:25:37.922Z,97705.27
2023-09-18T09:28:08.537Z,97701.38
2023-09-18T09:30:37.742Z,97698.34
2023-09-18T09:33:07.367Z,97697.98
2023-09-18T09:35:37.559Z,97695.24
2023-09-18T09:38:12.267Z,97691.59
2023-09-18T09:40:42.338Z,97691.61
2023-09-18T09:43:14.732Z,97690.13
2023-09-18T09:45:43.425Z,97687.44
2023-09-18T09:48:11.627Z,97684.96
2023-09-18T09:50:50.269Z,97685.75
2023-09-18T09:53:19.762Z,97682.04
2023-09-18T09:55:55.547Z,97675.11
2023-09-18T09:58:28.077Z,97675.48
2023-09-18T10:01:00.734Z,97674.38
2023-09-18T10:03:30.360Z,97666.23
2023-09-18T10:05:59.786Z,97661.95
2023-09-18T10:08:31.974Z,97666.17
2023-09-18T10:11:08.649Z,97663.80
2023-09-18T10:13:56.719Z,97662.02
2023-09-18T10:16:28.749Z,97656.33
2023-09-18T10:19:16.048Z,97653.16
2023-09-18T10:22:12.049Z,97655.41
2023-09-18T10:24:46.401Z,97653.97
2023-09-18T10:27:15.466Z,97650.73
2023-09-18T10:29:46.130Z,97645.42
2023-09-18T10:32:14.718Z,97639.48
2023-09-18T10:34:44.625Z,97640.20
2023-09-18T10:37:13.609Z,97633.52
2023-09-18T10:39:45.107Z,97631.41
2023-09-18T10:42:15.251Z,97632.14
2023-09-18T10:44:44.731Z,97632.52
2023-09-18T10:47:13.466Z,97629.73
2023-09-18T10:49:44.620Z,97633.21
2023-09-18T10:52:14.623Z,97630.21
2023-09-18T10:54:43.673Z,97621.91
2023-09-18T10:57:12.827Z,97620.34
2023-09-18T10:59:51.734Z,97621.48
2023-09-18T11:02:20.773Z,97619.13
2023-09-18T11:04:49.011Z,97614.25
2023-09-18T11:07:24.234Z,97607.07
2023-09-18T11:09:52.232Z,97609.95
2023-09-18T11:12:20.260Z,97607.71
2023-09-18T11:15:00.136Z,97609.08
2023-09-18T11:17:35.987Z,97605.86
2023-09-18T11:20:16.530Z,97602.75
2023-09-18T11:22:50.065Z,97601.52
2023-09-18T11:25:43.867Z,97599.73
2023-09-18T11:28:24.975Z,97600.40
2023-09-18T11:31:00.013Z,97598.98
2023-09-18T11:33:46.440Z,97591.77
2023-09-18T11:36:34.901Z,97589.21
2023-09-18T11:39:06.075Z,97588.40
2023-09-18T11:41:39.924Z,97585.20
2023-09-18T11:44:15.011Z,97581.05
2023-09-18T11:46:47.634Z,97579.18
2023-09-18T11:49:21.088Z,97580.05
2023-09-18T11:51:49.237Z,97579.09
2023-09-18T11:54:18.215Z,97580.00
2023-09-18T11:56:46.805Z,97577.67
2023-09-18T11:59:14.905Z,97575.19
2023-09-18T12:01:47.908Z,97569.95
2023-09-18T12:04:16.038Z,97560.30
2023-09-18T12:06:44.204Z,97559.77
2023-09-18T12:09:14.102Z,97552.02
2023-09-18T12:11:43.528Z,97549.23
2023-09-18T12:14:11.643Z,97542.17
2023-09-18T12:16:40.484Z,97537.45
2023-09-18T12:19:09.193Z,97539.73
2023-09-18T12:21:48.377Z,97531.97
2023-09-18T12:24:27.197Z,97531.55
2023-09-18T12:26:56.033Z,97531.97
2023-09-18T12:29:24.645Z,97531.20
2023-09-18T12:31:53.896Z,97528.92
2023-09-18T12:34:23.618Z,97525.83
2023-09-18T12:36:52.334Z,97523.05
2023-09-18T12:39:22.149Z,97520.95
2023-09-18T12:41:50.556Z,97517.47
2023-09-18T12:44:19.080Z,97516.98
2023-09-18T12:46:48.008Z,97515.89
2023-09-18T12:49:21.118Z,97513.06
2023-09-18T12:51:59.954Z,97509.96
2023-09-18T12:54:40.925Z,97504.36
2023-09-18T12:57:10.729Z,97499.51
2023-09-18T12:59:39.619Z,97499.02
2023-09-18T13:02:08.572Z,97496.98
2023-09-18T13:04:41.516Z,97497.83
2023-09-18T13:07:13.511Z,97497.27
2023-09-18T13:09:44.606Z,97493.97
2023-09-18T13:12:12.731Z,97488.43
2023-09-18T13:15:19.974Z,97482.19
2023-09-18T13:17:49.787Z,97476.02
2023-09-18T13:20:21.968Z,97472.67
2023-09-18T13:22:51.141Z,97470.67
2023-09-18T13:25:24.548Z,97467.14
2023-09-18T13:27:54.266Z,97463.56
2023-09-18T13:30:24.158Z,97460.12
2023-09-18T13:32:52.747Z,97456.09
2023-09-18T13:35:20.937Z,97457.35
2023-09-18T13:37:49.205Z,97460.91
2023-09-18T13:40:17.139Z,97458.39
2023-09-18T13:42:45.054Z,97460.39
2023-09-18T13:45:13.202Z,97460.21
2023-09-18T13:47:41.237Z,97461.48
2023-09-18T13:50:10.518Z,97459.61
2023-09-18T13:52:38.585Z,97455.77
2023-09-18T13:55:07.126Z,97454.71
2023-09-18T13:57:37.988Z,97450.60
2023-09-18T14:00:08.070Z,97455.96
2023-09-18T14:02:36.169Z,97454.89
2023-09-18T14:05:04.834Z,97453.16
2023-09-18T14:07:32.875Z,97452.65
2023-09-18T14:10:04.673Z,97445.58
2023-09-18T14:12:32.961Z,97444.78
2023-09-18T14:15:01.084Z,97441.70
2023-09-18T14:17:29.262Z,97445.46
2023-09-18T14:19:57.356Z,97445.92
2023-09-18T14:22:25.472Z,97440.27
2023-09-18T14:24:53.615Z,97438.20
2023-09-18T14:27:21.619Z,97440.08
2023-09-18T14:29:49.605Z,97438.64
2023-09-18T14:32:17.630Z,97437.85
2023-09-18T14:34:47.041Z,97434.51
2023-09-18T14:37:15.395Z,97427.92
2023-09-18T14:39:43.660Z,97425.63
2023-09-18T14:42:12.620Z,97421.38
2023-09-18T14:44:45.909Z,97422.02
2023-09-18T14:47:14.064Z,97420.64
2023-09-18T14:49:42.102Z,97420.48
2023-09-18T14:52:10.483Z,97422.34
2023-09-18T14:54:38.573Z,97420.48
2023-09-18T14:57:06.507Z,97419.07
2023-09-18T14:59:42.168Z,97421.06
2023-09-18T15:02:11.024Z,97418.45
2023-09-18T15:04:39.050Z,97416.52
2023-09-18T15:07:07.248Z,97424.59
2023-09-18T15:09:35.139Z,97427.12
2023-09-18T15:12:04.654Z,97422.85
2023-09-18T15:14:33.208Z,97420.99
2023-09-18T15:17:01.184Z,97420.82
2023-09-18T15:19:29.662Z,97418.09
2023-09-18T15:21:58.816Z,97419.39
2023-09-18T15:24:26.878Z,97421.40
2023-09-18T15:26:55.126Z,97421.39
2023-09-18T15:29:23.581Z,97421.11
2023-09-18T15:31:51.780Z,97424.56
2023-09-18T15:34:20.147Z,97426.79
2023-09-18T15:36:48.048Z,97425.65
2023-09-18T15:39:16.123Z,97422.47
2023-09-18T15:41:44.118Z,97420.58
2023-09-18T15:44:13.263Z,97416.58
2023-09-18T15:46:44.008Z,97408.95
2023-09-18T15:49:14.244Z,97408.72
2023-09-18T15:51:42.558Z,97407.92
2023-09-18T15:54:10.850Z,97411.86
2023-09-18T15:56:39.775Z,97405.09
2023-09-18T15:59:09.569Z,97403.44
2023-09-18T16:01:39.003Z,97401.98
2023-09-18T16:04:07.273Z,97401.27
2023-09-18T16:06:35.700Z,97396.73
2023-09-18T16:09:07.533Z,97394.17
2023-09-18T16:11:35.607Z,97392.11
2023-09-18T16:14:03.757Z,97387.02
2023-09-18T16:16:31.703Z,97386.56
2023-09-18T16:18:59.871Z,97388.72
2023-09-18T16:21:28.222Z,97386.21
2023-09-18T16:23:56.276Z,97384.26
2023-09-18T16:26:24.273Z,97379.33
2023-09-18T16:28:52.348Z,97383.02
2023-09-18T16:31:20.706Z,97384.42
2023-09-18T16:33:48.819Z,97375.20
2023-09-18T16:36:16.985Z,97384.54
2023-09-18T16:38:44.883Z,97387.60
2023-09-18T16:41:12.908Z,97381.39
2023-09-18T16:43:40.972Z,97382.73
2023-09-18T16:46:09.168Z,97382.80
2023-09-18T16:48:37.349Z,97381.33
2023-09-18T16:51:05.806Z,97378.73
2023-09-18T16:53:33.710Z,97386.90
2023-09-18T16:56:01.925Z,97385.20
2023-09-18T16:58:29.887Z,97389.27
2023-09-18T17:00:58.161Z,97390.20
2023-09-18T17:03:26.216Z,97394.89
2023-09-18T17:05:54.489Z,97390.26
2023-09-18T17:08:22.746Z,97387.99
2023-09-18T17:10:50.838Z,97386.21
2023-09-18T17:13:18.718Z,97384.29
2023-09-18T17:15:47.146Z,97382.71
2023-09-18T17:18:15.406Z,97383.91
2023-09-18T17:20:44.614Z,97387.00
2023-09-18T17:23:15.477Z,97389.70
2023-09-18T17:25:44.301Z,97391.27
2023-09-18T17:28:12.842Z,97392.77
2023-09-18T17:30:40.834Z,97396.55
2023-09-18T17:33:08.756Z,97396.17
2023-09-18T17:35:39.969Z,97405.33
2023-09-18T17:38:09.032Z,97402.75
2023-09-18T17:40:37.141Z,97408.67
2023-09-18T17:43:05.085Z,97408.73
2023-09-18T17:45:34.825Z,97410.70
2023-09-18T17:48:08.149Z,97401.05
2023-09-18T17:50:36.310Z,97399.67
2023-09-18T17:53:04.492Z,97396.86
2023-09-18T17:55:32.308Z,97392.33
2023-09-18T17:58:00.577Z,97393.52
2023-09-18T18:00:28.860Z,97395.08
2023-09-18T18:02:56.886Z,97395.48
2023-09-18T18:05:29.396Z,97386.51
2023-09-18T18:07:57.979Z,97387.48
2023-09-18T18:10:26.059Z,97391.47
2023-09-18T18:12:54.030Z,97384.83
2023-09-18T18:15:21.965Z,97394.75
2023-09-18T18:17:50.128Z,97393.14
2023-09-18T18:20:24.466Z,97391.41
2023-09-18T18:22:54.030Z,97395.02
2023-09-18T18:25:22.246Z,97394.71
2023-09-18T18:27:50.317Z,97401.35
2023-09-18T18:30:18.838Z,97395.84
2023-09-18T18:32:47.579Z,97387.38
2023-09-18T18:35:20.460Z,97390.77
2023-09-18T18:37:50.328Z,97385.91
2023-09-18T18:40:20.880Z,97386.33
2023-09-18T18:42:52.350Z,97385.23
2023-09-18T18:45:20.469Z,97381.33
2023-09-18T18:47:49.119Z,97383.89
2023-09-18T18:50:17.832Z,97390.23
2023-09-18T18:52:45.826Z,97385.16
2023-09-18T18:55:14.058Z,97383.64
2023-09-18T18:57:42.134Z,97378.84
2023-09-18T19:00:12.719Z,97376.36
2023-09-18T19:02:43.067Z,97382.10
2023-09-18T19:05:12.456Z,97380.46
2023-09-18T19:07:40.449Z,97385.20
2023-09-18T19:10:08.890Z,97378.33
2023-09-18T19:15:08.338Z,97388.64
2023-09-18T19:17:36.305Z,97377.00
2023-09-18T19:20:09.215Z,97383.02
2023-09-18T19:22:38.898Z,97389.52
2023-09-18T19:25:07.868Z,97379.64
2023-09-18T19:27:38.143Z,97378.59
2023-09-18T19:30:10.417Z,97384.16
2023-09-18T19:32:40.019Z,97388.98
2023-09-18T19:35:08.833Z,97386.20
2023-09-18T19:37:36.744Z,97394.30
2023-09-18T19:40:07.338Z,97393.70
2023-09-18T19:42:35.256Z,97394.88
2023-09-18T19:45:06.054Z,97390.94
2023-09-18T19:47:34.260Z,97389.95
2023-09-18T19:50:02.330Z,97392.73
2023-09-18T19:52:32.034Z,97389.42
2023-09-18T19:55:00.045Z,97391.27
2023-09-18T19:57:28.104Z,97396.15
2023-09-18T19:59:56.115Z,97395.16
2023-09-18T20:02:24.129Z,97394.44
2023-09-18T20:04:52.525Z,97395.73
2023-09-18T20:07:20.665Z,97393.88
2023-09-18T20:09:48.659Z,97389.16
2023-09-18T20:12:16.629Z,97385.05
2023-09-18T20:14:45.586Z,97383.13
2023-09-18T20:17:13.718Z,97381.27
2023-09-18T20:19:41.614Z,97379.95
2023-09-18T20:22:10.040Z,97378.58
2023-09-18T20:24:38.297Z,97375.86
2023-09-18T20:27:08.317Z,97373.91
2023-09-18T20:29:37.042Z,97380.80
2023-09-18T20:32:05.506Z,97379.86
2023-09-18T20:34:33.621Z,97375.05
2023-09-18T20:37:01.704Z,97373.66
2023-09-18T20:39:30.284Z,97375.67
2023-09-18T20:41:58.340Z,97381.64
2023-09-18T20:44:26.341Z,97382.34
2023-09-18T20:46:54.494Z,97383.05
2023-09-18T20:49:22.610Z,97384.13
2023-09-18T20:51:50.540Z,97384.41
2023-09-18T20:54:18.450Z,97383.77
2023-09-18T20:56:46.946Z,97378.08
2023-09-18T20:59:14.952Z,97378.16
2023-09-18T21:01:45.132Z,97380.77
2023-09-18T21:04:13.406Z,97379.45
2023-09-18T21:06:42.510Z,97380.86
2023-09-18T21:09:12.844Z,97373.23
2023-09-18T21:11:45.168Z,97372.15
2023-09-18T21:14:13.182Z,97371.88
2023-09-18T21:16:41.375Z,97369.48
2023-09-18T21:19:09.309Z,97367.23
2023-09-18T21:21:37.170Z,97368.20
2023-09-18T21:24:05.577Z,97369.05
2023-09-18T21:26:33.550Z,97366.67
2023-09-18T21:29:01.562Z,97368.42
2023-09-18T21:31:29.670Z,97372.45
2023-09-18T21:33:57.754Z,97371.55
2023-09-18T21:36:25.692Z,97369.02
2023-09-18T21:38:55.390Z,97369.45
2023-09-18T21:41:24.168Z,97375.30
2023-09-18T21:43:52.552Z,97379.25
2023-09-18T21:46:20.763Z,97379.80
2023-09-18T21:48:48.900Z,97377.85
2023-09-18T21:51:19.456Z,97377.96
2023-09-18T21:53:48.289Z,97373.04
2023-09-18T21:56:16.575Z,97371.88
2023-09-18T21:58:44.506Z,97370.27
2023-09-18T22:01:14.026Z,97363.41
2023-09-18T22:03:45.580Z,97360.94
2023-09-18T22:06:13.956Z,97366.08
2023-09-18T22:08:42.093Z,97374.08
2023-09-18T22:11:10.565Z,97376.64
2023-09-18T22:13:38.855Z,97378.11
2023-09-18T22:16:07.949Z,97379.77
2023-09-18T22:18:35.920Z,97376.21
2023-09-18T22:21:05.082Z,97380.64
2023-09-18T22:23:33.165Z,97376.60
2023-09-18T22:26:03.442Z,97376.83
2023-09-18T22:28:32.079Z,97372.33
2023-09-18T22:31:00.227Z,97369.38
2023-09-18T22:33:28.733Z,97366.94
2023-09-18T22:35:56.945Z,97363.30
2023-09-18T22:38:45.474Z,97363.05
2023-09-18T22:41:13.342Z,97365.78
2023-09-18T22:44:20.250Z,97367.77
2023-09-18T22:47:36.551Z,97366.35
2023-09-18T22:50:42.816Z,97357.69
2023-09-18T22:53:10.846Z,97350.42
2023-09-18T22:55:42.271Z,97350.58
2023-09-18T22:58:13.195Z,97349.27
2023-09-18T23:00:41.471Z,97344.51
2023-09-18T23:03:11.059Z,97342.83
2023-09-18T23:05:40.541Z,97349.49
2023-09-18T23:08:10.380Z,97351.95
2023-09-18T23:10:38.809Z,97349.29
2023-09-18T23:13:07.391Z,97345.05
2023-09-18T23:15:35.898Z,97340.27
2023-09-18T23:18:07.342Z,97340.67
2023-09-18T23:20:36.646Z,97340.61
2023-09-18T23:23:05.273Z,97339.09
2023-09-18T23:25:35.020Z,97333.45
2023-09-18T23:28:04.467Z,97334.85
2023-09-18T23:30:33.286Z,97336.67
2023-09-18T23:33:06.603Z,97339.15
2023-09-18T23:35:35.380Z,97341.11
2023-09-18T23:38:06.858Z,97343.68
2023-09-18T23:40:37.022Z,97339.86
2023-09-18T23:43:08.333Z,97338.27
2023-09-18T23:45:45.006Z,97335.56
2023-09-18T23:48:16.154Z,97336.57
2023-09-18T23:50:50.798Z,97334.96
2023-09-18T23:53:20.476Z,97335.91
2023-09-18T23:55:53.719Z,97332.55
2023-09-18T23:58:21.909Z,97327.33
